createdAt,value
2022-10-09T00:01:23.434Z,3.80
2022-10-09T00:03:53.408Z,5.45
2022-10-09T00:06:30.748Z,4.40
2022-10-09T00:09:00.110Z,4.65
2022-10-09T00:11:29.140Z,4.20
2022-10-09T00:13:58.616Z,4.00
2022-10-09T00:16:26.980Z,4.15
2022-10-09T00:18:55.178Z,4.30
2022-10-09T00:21:30.847Z,4.13
2022-10-09T00:24:02.918Z,4.03
2022-10-09T00:26:32.553Z,4.13
2022-10-09T00:29:01.048Z,3.85
2022-10-09T00:31:29.086Z,4.05
2022-10-09T00:33:56.322Z,3.95
2022-10-09T00:36:26.564Z,4.10
2022-10-09T00:38:55.125Z,4.00
2022-10-09T00:41:28.793Z,4.38
2022-10-09T00:44:03.202Z,4.27
2022-10-09T00:46:39.341Z,4.18
2022-10-09T00:49:15.261Z,3.63
2022-10-09T00:51:46.697Z,4.00
2022-10-09T00:54:20.398Z,3.90
2022-10-09T00:56:49.612Z,3.78
2022-10-09T00:59:18.901Z,4.45
2022-10-09T01:01:46.767Z,4.28
2022-10-09T01:04:14.846Z,4.18
2022-10-09T01:07:16.891Z,4.03
2022-10-09T01:10:03.978Z,3.60
2022-10-09T01:12:45.492Z,4.35
2022-10-09T01:15:36.709Z,4.28
2022-10-09T01:18:51.662Z,3.70
2022-10-09T01:21:29.023Z,3.93
2022-10-09T01:24:14.846Z,4.00
2022-10-09T01:26:56.859Z,3.75
2022-10-09T01:29:31.980Z,4.25
2022-10-09T01:32:02.548Z,4.50
2022-10-09T01:34:32.574Z,4.63
2022-10-09T01:37:01.219Z,4.25
2022-10-09T01:39:31.915Z,4.43
2022-10-09T01:41:59.954Z,4.30
2022-10-09T01:44:31.823Z,4.25
2022-10-09T01:47:01.306Z,4.10
2022-10-09T01:49:40.710Z,4.18
2022-10-09T01:52:20.698Z,4.32
2022-10-09T01:55:12.337Z,4.45
2022-10-09T01:57:50.341Z,3.75
2022-10-09T02:00:18.726Z,4.30
2022-10-09T02:02:48.782Z,4.22
2022-10-09T02:05:22.613Z,4.30
2022-10-09T02:07:49.998Z,4.55
2022-10-09T02:10:20.097Z,4.50
2022-10-09T02:12:56.133Z,3.80
2022-10-09T02:15:32.738Z,4.22
2022-10-09T02:18:15.107Z,4.28
2022-10-09T02:20:55.197Z,4.45
2022-10-09T02:23:25.664Z,4.53
2022-10-09T02:25:53.524Z,4.55
2022-10-09T02:28:21.999Z,4.47
2022-10-09T02:31:03.769Z,4.55
2022-10-09T02:33:33.802Z,4.20
2022-10-09T02:36:02.679Z,4.20
2022-10-09T02:38:29.702Z,3.92
2022-10-09T02:41:01.585Z,4.10
2022-10-09T02:43:29.123Z,4.43
2022-10-09T02:45:58.204Z,4.38
2022-10-09T02:48:25.498Z,4.70
2022-10-09T02:50:52.546Z,4.90
2022-10-09T02:53:19.606Z,4.40
2022-10-09T02:55:46.590Z,4.55
2022-10-09T02:58:13.542Z,4.93
2022-10-09T03:00:40.633Z,4.95
2022-10-09T03:03:07.851Z,5.00
2022-10-09T03:05:34.838Z,4.78
2022-10-09T03:08:01.794Z,4.93
2022-10-09T03:10:28.770Z,4.70
2022-10-09T03:12:55.743Z,4.53
2022-10-09T03:15:22.790Z,4.47
2022-10-09T03:17:49.780Z,4.82
2022-10-09T03:20:17.064Z,5.22
2022-10-09T03:22:45.013Z,4.63
2022-10-09T03:25:12.077Z,5.15
2022-10-09T03:27:39.115Z,5.35
2022-10-09T03:30:07.452Z,4.72
2022-10-09T03:32:34.399Z,5.47
2022-10-09T03:35:01.392Z,5.28
2022-10-09T03:37:28.832Z,4.75
2022-10-09T03:39:56.867Z,4.93
2022-10-09T03:42:24.139Z,4.65
2022-10-09T03:44:51.364Z,4.97
2022-10-09T03:47:18.550Z,4.93
2022-10-09T03:49:45.632Z,5.13
2022-10-09T03:52:12.677Z,5.13
2022-10-09T03:54:39.615Z,5.78
2022-10-09T03:57:06.579Z,5.53
2022-10-09T03:59:33.547Z,5.30
2022-10-09T04:02:00.818Z,5.40
2022-10-09T04:04:27.803Z,5.60
2022-10-09T04:06:54.770Z,5.30
2022-10-09T04:09:21.863Z,5.80
2022-10-09T04:11:48.879Z,5.50
2022-10-09T04:14:16.958Z,5.00
2022-10-09T04:16:43.913Z,5.40
2022-10-09T04:19:12.095Z,5.15
2022-10-09T04:21:39.179Z,6.20
2022-10-09T04:24:08.513Z,5.70
2022-10-09T04:26:35.777Z,6.10
2022-10-09T04:29:02.921Z,4.97
2022-10-09T04:31:30.234Z,5.22
2022-10-09T04:33:57.303Z,4.93
2022-10-09T04:36:24.776Z,5.43
2022-10-09T04:38:52.756Z,5.03
2022-10-09T04:41:19.805Z,4.90
2022-10-09T04:43:46.849Z,5.68
2022-10-09T04:46:15.341Z,6.25
2022-10-09T04:48:45.946Z,6.43
2022-10-09T04:51:14.088Z,6.20
2022-10-09T04:53:41.947Z,6.10
2022-10-09T04:56:15.944Z,6.05
2022-10-09T04:58:44.388Z,6.10
2022-10-09T05:01:19.603Z,5.80
2022-10-09T05:03:46.897Z,5.78
2022-10-09T05:06:15.303Z,5.05
2022-10-09T05:08:42.768Z,6.18
2022-10-09T05:11:27.884Z,10.93
2022-10-09T05:13:58.060Z,21.35
2022-10-09T05:16:29.015Z,10.80
2022-10-09T05:18:58.962Z,6.32
2022-10-09T05:21:29.300Z,9.20
2022-10-09T05:23:57.073Z,6.28
2022-10-09T05:26:27.519Z,5.35
2022-10-09T05:28:55.667Z,5.35
2022-10-09T05:31:27.555Z,5.50
2022-10-09T05:33:58.239Z,4.93
2022-10-09T05:36:25.455Z,5.00
2022-10-09T05:38:53.725Z,7.18
2022-10-09T05:41:20.862Z,5.90
2022-10-09T05:43:50.176Z,5.25
2022-10-09T05:46:24.892Z,4.88
2022-10-09T05:49:01.706Z,5.43
2022-10-09T05:51:32.357Z,5.40
2022-10-09T05:54:02.120Z,5.22
2022-10-09T05:56:36.747Z,5.50
2022-10-09T06:01:44.487Z,6.32
2022-10-09T06:04:18.966Z,6.82
2022-10-09T06:06:50.295Z,7.40
2022-10-09T06:09:23.192Z,6.60
2022-10-09T06:11:52.282Z,7.43
2022-10-09T06:14:22.118Z,7.22
2022-10-09T06:16:49.874Z,10.05
2022-10-09T06:19:19.809Z,8.98
2022-10-09T06:21:47.965Z,8.27
2022-10-09T06:24:28.848Z,8.23
2022-10-09T06:26:57.963Z,8.30
2022-10-09T06:29:25.593Z,8.38
2022-10-09T06:31:52.794Z,7.80
2022-10-09T06:34:20.858Z,6.75
2022-10-09T06:36:48.240Z,7.82
2022-10-09T06:39:15.580Z,7.53
2022-10-09T06:41:42.708Z,6.85
2022-10-09T06:44:29.818Z,6.70
2022-10-09T06:46:56.762Z,7.10
2022-10-09T06:49:23.927Z,6.15
2022-10-09T06:51:52.013Z,6.75
2022-10-09T06:54:19.110Z,5.88
2022-10-09T06:56:46.159Z,6.07
2022-10-09T06:59:13.412Z,6.57
2022-10-09T07:01:40.696Z,6.43
2022-10-09T07:04:14.544Z,7.40
2022-10-09T07:06:46.660Z,7.80
2022-10-09T07:09:23.571Z,7.13
2022-10-09T07:11:50.624Z,7.15
2022-10-09T07:14:18.285Z,7.00
2022-10-09T07:16:48.806Z,7.00
2022-10-09T07:19:17.725Z,6.72
2022-10-09T07:21:49.590Z,6.78
2022-10-09T07:24:20.540Z,6.75
2022-10-09T07:26:48.728Z,6.88
2022-10-09T07:29:18.956Z,6.60
2022-10-09T07:31:46.178Z,6.47
2022-10-09T07:34:13.446Z,6.03
2022-10-09T07:36:40.511Z,6.57
2022-10-09T07:39:07.803Z,6.22
2022-10-09T07:41:35.374Z,6.25
2022-10-09T07:44:03.436Z,6.00
2022-10-09T07:46:33.687Z,5.93
2022-10-09T07:49:02.452Z,6.32
2022-10-09T07:51:31.590Z,6.60
2022-10-09T07:54:01.790Z,6.57
2022-10-09T07:56:36.202Z,6.38
2022-10-09T08:01:35.776Z,6.72
2022-10-09T08:04:04.231Z,6.47
2022-10-09T08:06:32.777Z,6.55
2022-10-09T08:09:02.479Z,6.68
2022-10-09T08:11:30.851Z,6.20
2022-10-09T08:13:58.634Z,6.45
2022-10-09T08:16:28.334Z,6.53
2022-10-09T08:19:00.594Z,6.97
2022-10-09T08:21:28.664Z,6.78
2022-10-09T08:23:58.844Z,6.22
2022-10-09T08:26:29.526Z,6.32
2022-10-09T08:29:01.064Z,6.32
2022-10-09T08:31:29.741Z,6.22
2022-10-09T08:33:59.753Z,6.72
2022-10-09T08:36:28.417Z,7.43
2022-10-09T08:38:55.592Z,6.60
2022-10-09T08:41:48.231Z,6.88
2022-10-09T08:44:40.937Z,6.50
2022-10-09T08:47:22.550Z,6.63
2022-10-09T08:50:09.063Z,7.55
2022-10-09T08:52:53.034Z,6.30
2022-10-09T08:55:31.318Z,6.20
2022-10-09T08:58:06.280Z,5.93
2022-10-09T09:00:59.187Z,6.50
2022-10-09T09:03:32.014Z,6.00
2022-10-09T09:06:22.219Z,6.10
2022-10-09T09:09:30.473Z,6.15
2022-10-09T09:12:25.912Z,5.78
2022-10-09T09:15:33.384Z,5.78
2022-10-09T09:19:02.796Z,5.78
2022-10-09T09:21:53.837Z,4.80
2022-10-09T09:24:30.948Z,4.75
2022-10-09T09:27:04.304Z,4.35
2022-10-09T09:29:45.642Z,4.63
2022-10-09T09:32:22.055Z,4.63
2022-10-09T09:34:50.744Z,4.70
2022-10-09T09:37:17.713Z,4.55
2022-10-09T09:40:34.484Z,4.72
2022-10-09T09:42:32.925Z,4.35
2022-10-09T09:45:07.343Z,3.70
2022-10-09T09:50:34.978Z,3.40
2022-10-09T09:53:37.980Z,3.78
2022-10-09T09:56:05.987Z,3.47
2022-10-09T09:58:40.115Z,4.30
2022-10-09T10:01:07.930Z,3.80
2022-10-09T10:03:36.148Z,4.32
2022-10-09T10:06:03.947Z,4.05
2022-10-09T10:08:34.204Z,4.20
2022-10-09T10:11:06.938Z,3.92
2022-10-09T10:13:39.003Z,3.88
2022-10-09T10:16:08.907Z,3.72
2022-10-09T10:18:42.901Z,3.75
2022-10-09T10:21:18.417Z,3.47
2022-10-09T10:26:47.019Z,2.70
2022-10-09T10:29:29.143Z,2.38
2022-10-09T10:32:11.967Z,2.47
2022-10-09T10:34:51.644Z,2.90
2022-10-09T10:37:40.395Z,2.55
2022-10-09T10:40:15.138Z,1.75
2022-10-09T10:43:11.154Z,2.03
2022-10-09T10:45:44.285Z,2.40
2022-10-09T10:48:28.688Z,1.90
2022-10-09T10:51:04.545Z,2.00
2022-10-09T10:54:21.256Z,1.90
2022-10-09T10:57:07.101Z,2.08
2022-10-09T10:59:50.982Z,1.95
2022-10-09T11:02:41.143Z,1.83
2022-10-09T11:05:18.237Z,2.15
2022-10-09T11:08:26.642Z,1.58
2022-10-09T11:11:08.760Z,1.60
2022-10-09T11:14:08.419Z,2.00
2022-10-09T11:16:52.925Z,1.90
2022-10-09T11:22:47.683Z,1.83
2022-10-09T11:25:50.393Z,2.00
2022-10-09T11:28:49.081Z,1.90
2022-10-09T11:31:26.951Z,1.83
2022-10-09T11:34:11.060Z,1.70
2022-10-09T11:36:44.446Z,1.73
2022-10-09T11:39:20.537Z,2.13
2022-10-09T11:41:50.815Z,2.17
2022-10-09T11:44:47.316Z,2.00
2022-10-09T11:47:34.807Z,2.08
2022-10-09T11:50:21.412Z,2.05
2022-10-09T11:53:10.124Z,1.95
2022-10-09T11:55:38.164Z,2.08
2022-10-09T11:58:24.367Z,1.80
2022-10-09T12:00:57.709Z,1.95
2022-10-09T12:03:35.244Z,2.10
2022-10-09T12:06:16.022Z,2.10
2022-10-09T12:09:08.033Z,2.05
2022-10-09T12:11:36.176Z,1.65
2022-10-09T12:14:08.243Z,2.03
2022-10-09T12:16:45.515Z,1.73
2022-10-09T12:19:39.064Z,1.40
2022-10-09T12:22:36.952Z,1.35
2022-10-09T12:25:15.116Z,1.80
2022-10-09T12:27:42.743Z,1.30
2022-10-09T12:30:14.101Z,1.33
2022-10-09T12:33:17.320Z,1.23
2022-10-09T12:35:57.202Z,1.38
2022-10-09T12:38:31.772Z,1.60
2022-10-09T12:41:17.944Z,1.13
2022-10-09T12:43:51.183Z,1.35
2022-10-09T12:46:33.716Z,1.67
2022-10-09T12:49:05.439Z,1.60
2022-10-09T12:51:33.762Z,1.50
2022-10-09T12:54:10.044Z,1.70
2022-10-09T12:56:39.311Z,1.23
2022-10-09T12:59:09.651Z,1.27
2022-10-09T13:01:37.375Z,0.93
2022-10-09T13:04:08.413Z,1.30
2022-10-09T13:06:50.001Z,1.20
2022-10-09T13:09:32.624Z,1.30
2022-10-09T13:12:08.034Z,1.13
2022-10-09T13:14:46.207Z,1.35
2022-10-09T13:20:31.763Z,1.23
2022-10-09T13:23:04.978Z,1.10
2022-10-09T13:25:40.422Z,1.10
2022-10-09T13:28:07.748Z,1.40
2022-10-09T13:30:34.869Z,1.38
2022-10-09T13:33:02.002Z,1.20
2022-10-09T13:35:29.029Z,1.27
2022-10-09T13:37:55.980Z,1.30
2022-10-09T13:40:23.093Z,1.05
2022-10-09T13:43:02.522Z,1.50
2022-10-09T13:45:29.615Z,1.30
2022-10-09T13:47:56.760Z,1.05
2022-10-09T13:50:23.890Z,1.33
2022-10-09T13:52:50.933Z,1.10
2022-10-09T13:55:18.072Z,1.60
2022-10-09T13:57:46.530Z,1.52
2022-10-09T14:00:14.076Z,1.10
2022-10-09T14:02:41.309Z,1.52
2022-10-09T14:05:08.651Z,1.30
2022-10-09T14:07:35.700Z,0.93
2022-10-09T14:10:06.832Z,1.00
2022-10-09T14:12:33.825Z,0.82
2022-10-09T14:15:00.869Z,0.73
2022-10-09T14:17:27.870Z,1.25
2022-10-09T14:19:54.858Z,1.08
2022-10-09T14:22:21.971Z,0.88
2022-10-09T14:24:48.999Z,0.88
2022-10-09T14:27:17.029Z,0.95
2022-10-09T14:29:44.053Z,1.15
2022-10-09T14:32:11.124Z,1.25
2022-10-09T14:34:38.923Z,0.90
2022-10-09T14:37:18.566Z,1.10
2022-10-09T14:39:46.895Z,0.90
2022-10-09T14:42:13.893Z,0.80
2022-10-09T14:44:41.002Z,0.95
2022-10-09T14:47:08.032Z,0.93
2022-10-09T14:49:35.116Z,0.98
2022-10-09T14:52:02.132Z,1.30
2022-10-09T14:54:29.244Z,0.90
2022-10-09T14:56:56.420Z,0.95
2022-10-09T14:59:24.557Z,0.70
2022-10-09T15:01:51.580Z,0.90
2022-10-09T15:04:18.653Z,1.10
2022-10-09T15:06:45.752Z,0.88
2022-10-09T15:09:12.845Z,0.85
2022-10-09T15:11:39.851Z,1.05
2022-10-09T15:14:07.630Z,0.95
2022-10-09T15:16:35.255Z,1.10
2022-10-09T15:19:03.064Z,0.90
2022-10-09T15:21:34.359Z,1.08
2022-10-09T15:24:04.560Z,0.90
2022-10-09T15:26:33.797Z,1.20
2022-10-09T15:29:05.623Z,0.90
2022-10-09T15:31:40.644Z,0.90
2022-10-09T15:34:10.428Z,0.95
2022-10-09T15:36:39.972Z,0.82
2022-10-09T15:39:08.980Z,0.90
2022-10-09T15:41:40.375Z,0.90
2022-10-09T15:44:20.213Z,0.90
2022-10-09T15:46:48.794Z,1.20
2022-10-09T15:49:15.954Z,0.95
2022-10-09T15:51:43.067Z,1.00
2022-10-09T15:54:11.969Z,1.13
2022-10-09T15:56:40.287Z,1.00
2022-10-09T15:59:07.865Z,0.98
2022-10-09T16:01:36.083Z,0.80
2022-10-09T16:04:03.151Z,0.70
2022-10-09T16:06:30.272Z,1.00
2022-10-09T16:08:58.609Z,0.95
2022-10-09T16:11:26.640Z,1.05
2022-10-09T16:13:54.855Z,0.88
2022-10-09T16:16:27.244Z,0.90
2022-10-09T16:18:55.457Z,1.10
2022-10-09T16:21:28.303Z,1.00
2022-10-09T16:24:00.619Z,1.20
2022-10-09T16:26:34.747Z,1.00
2022-10-09T16:29:01.860Z,0.95
2022-10-09T16:31:34.855Z,0.98
2022-10-09T16:34:07.399Z,0.90
2022-10-09T16:36:34.690Z,0.80
2022-10-09T16:39:02.022Z,1.10
2022-10-09T16:41:29.049Z,0.80
2022-10-09T16:43:57.903Z,0.70
2022-10-09T16:46:31.596Z,0.90
2022-10-09T16:49:02.007Z,0.85
2022-10-09T16:51:35.968Z,0.73
2022-10-09T16:54:05.897Z,0.80
2022-10-09T16:56:37.786Z,1.00
2022-10-09T16:59:12.124Z,0.80
2022-10-09T17:04:13.098Z,0.80
2022-10-09T17:06:43.993Z,0.80
2022-10-09T17:09:14.049Z,1.00
2022-10-09T17:11:42.073Z,0.75
2022-10-09T17:14:09.287Z,1.15
2022-10-09T17:16:40.161Z,0.90
2022-10-09T17:19:07.808Z,1.10
2022-10-09T17:21:35.639Z,1.20
2022-10-09T17:24:06.259Z,0.95
2022-10-09T17:26:33.784Z,1.00
2022-10-09T17:29:02.652Z,1.08
2022-10-09T17:31:30.475Z,1.10
2022-10-09T17:34:01.835Z,1.02
2022-10-09T17:36:33.981Z,1.08
2022-10-09T17:39:01.147Z,1.25
2022-10-09T17:41:29.208Z,1.20
2022-10-09T17:43:58.402Z,1.20
2022-10-09T17:46:28.398Z,1.42
2022-10-09T17:48:56.834Z,1.13
2022-10-09T17:51:34.235Z,1.00
2022-10-09T17:54:11.733Z,0.95
2022-10-09T17:56:40.263Z,1.20
2022-10-09T17:59:08.341Z,1.40
2022-10-09T18:01:36.869Z,1.10
2022-10-09T18:04:04.205Z,1.10
2022-10-09T18:06:34.459Z,1.00
2022-10-09T18:09:02.507Z,1.10
2022-10-09T18:11:30.106Z,1.17
2022-10-09T18:13:57.955Z,1.27
2022-10-09T18:16:36.674Z,1.27
2022-10-09T18:19:12.329Z,1.30
2022-10-09T18:21:43.224Z,1.30
2022-10-09T18:24:11.361Z,1.52
2022-10-09T18:26:39.770Z,1.30
2022-10-09T18:29:07.280Z,1.17
2022-10-09T18:31:34.582Z,1.25
2022-10-09T18:34:05.784Z,1.33
2022-10-09T18:36:34.803Z,1.13
2022-10-09T18:39:14.801Z,1.50
2022-10-09T18:41:43.266Z,1.55
2022-10-09T18:44:12.721Z,1.27
2022-10-09T18:46:54.119Z,1.33
2022-10-09T18:49:27.041Z,1.33
2022-10-09T18:51:54.885Z,1.30
2022-10-09T18:54:25.636Z,1.45
2022-10-09T18:56:53.237Z,1.30
2022-10-09T18:59:22.359Z,1.50
2022-10-09T19:01:50.444Z,1.33
2022-10-09T19:04:37.114Z,1.65
2022-10-09T19:07:04.307Z,1.67
2022-10-09T19:09:31.341Z,1.30
2022-10-09T19:11:58.382Z,1.30
2022-10-09T19:14:26.458Z,1.20
2022-10-09T19:16:53.619Z,1.50
2022-10-09T19:19:20.779Z,1.40
2022-10-09T19:21:47.924Z,1.58
2022-10-09T19:24:15.047Z,1.67
2022-10-09T19:26:42.421Z,1.60
2022-10-09T19:29:09.640Z,1.60
2022-10-09T19:31:36.926Z,1.33
2022-10-09T19:34:05.479Z,1.20
2022-10-09T19:36:34.387Z,1.70
2022-10-09T19:39:08.167Z,1.33
2022-10-09T19:41:38.058Z,1.58
2022-10-09T19:44:05.171Z,1.52
2022-10-09T19:46:32.159Z,1.60
2022-10-09T19:48:59.528Z,1.30
2022-10-09T19:51:27.041Z,1.48
2022-10-09T19:53:54.952Z,1.60
2022-10-09T19:56:27.591Z,1.63
2022-10-09T19:58:57.738Z,1.60
2022-10-09T20:01:27.087Z,1.70
2022-10-09T20:03:57.512Z,1.48
2022-10-09T20:06:25.420Z,1.58
2022-10-09T20:08:52.607Z,1.40
2022-10-09T20:11:20.741Z,1.73
2022-10-09T20:13:53.376Z,1.65
2022-10-09T20:16:23.889Z,1.60
2022-10-09T20:18:51.351Z,1.77
2022-10-09T20:21:18.736Z,1.70
2022-10-09T20:23:45.968Z,1.70
2022-10-09T20:26:19.872Z,1.50
2022-10-09T20:28:48.275Z,1.80
2022-10-09T20:31:19.493Z,1.60
2022-10-09T20:33:48.917Z,1.42
2022-10-09T20:36:29.907Z,1.67
2022-10-09T20:39:07.155Z,1.30
2022-10-09T20:41:35.603Z,1.60
2022-10-09T20:44:04.556Z,1.48
2022-10-09T20:46:36.207Z,1.80
2022-10-09T20:49:07.176Z,1.83
2022-10-09T20:51:39.447Z,1.75
2022-10-09T20:54:13.739Z,1.60
2022-10-09T20:56:40.868Z,1.60
2022-10-09T20:59:07.863Z,1.75
2022-10-09T21:01:36.840Z,1.58
2022-10-09T21:04:04.750Z,1.98
2022-10-09T21:06:34.088Z,2.10
2022-10-09T21:09:01.239Z,1.80
2022-10-09T21:11:28.332Z,2.10
2022-10-09T21:13:55.387Z,1.90
2022-10-09T21:16:24.784Z,2.03
2022-10-09T21:19:02.448Z,1.90
2022-10-09T21:21:31.242Z,2.22
2022-10-09T21:24:00.278Z,2.10
2022-10-09T21:26:30.130Z,2.00
2022-10-09T21:28:59.848Z,2.20
2022-10-09T21:31:30.639Z,2.17
2022-10-09T21:34:00.637Z,1.73
2022-10-09T21:39:47.694Z,2.22
2022-10-09T21:42:14.802Z,2.00
2022-10-09T21:44:41.906Z,2.15
2022-10-09T21:47:18.627Z,2.28
2022-10-09T21:49:46.219Z,2.00
2022-10-09T21:52:13.284Z,2.30
2022-10-09T21:54:40.308Z,2.22
2022-10-09T21:57:07.331Z,2.00
2022-10-09T21:59:34.442Z,2.15
2022-10-09T22:02:02.695Z,2.08
2022-10-09T22:04:29.760Z,2.20
2022-10-09T22:06:56.770Z,2.40
2022-10-09T22:09:23.698Z,2.00
2022-10-09T22:11:50.728Z,2.35
2022-10-09T22:14:17.687Z,1.92
2022-10-09T22:16:44.658Z,2.30
2022-10-09T22:19:11.720Z,2.15
2022-10-09T22:21:38.744Z,2.50
2022-10-09T22:24:06.308Z,2.47
2022-10-09T22:26:33.393Z,2.58
2022-10-09T22:29:00.400Z,2.45
2022-10-09T22:31:28.200Z,2.30
2022-10-09T22:33:58.970Z,2.33
2022-10-09T22:36:30.652Z,2.13
2022-10-09T22:39:02.355Z,2.50
2022-10-09T22:41:30.960Z,2.70
2022-10-09T22:44:00.462Z,2.50
2022-10-09T22:46:37.234Z,2.63
2022-10-09T22:49:06.414Z,2.45
2022-10-09T22:51:34.281Z,2.35
2022-10-09T22:54:01.682Z,3.00
2022-10-09T22:56:48.987Z,2.60
2022-10-09T22:59:18.189Z,2.72
2022-10-09T23:01:51.372Z,2.90
2022-10-09T23:04:22.102Z,2.38
2022-10-09T23:06:55.954Z,2.60
2022-10-09T23:09:26.132Z,2.60
2022-10-09T23:11:54.320Z,2.70
2022-10-09T23:14:21.836Z,2.78
2022-10-09T23:16:49.364Z,2.50
2022-10-09T23:19:17.465Z,2.35
2022-10-09T23:21:47.928Z,3.15
2022-10-09T23:24:17.575Z,2.72
2022-10-09T23:26:49.930Z,3.13
2022-10-09T23:29:19.223Z,2.72
2022-10-09T23:31:46.741Z,2.88
2022-10-09T23:34:14.121Z,3.00
2022-10-09T23:36:41.395Z,2.75
2022-10-09T23:39:08.928Z,2.67
2022-10-09T23:41:36.142Z,3.00
2022-10-09T23:44:03.816Z,2.90
2022-10-09T23:46:37.487Z,2.85
2022-10-09T23:49:06.579Z,2.83
2022-10-09T23:51:33.679Z,2.97
2022-10-09T23:54:00.946Z,3.42
2022-10-09T23:56:33.514Z,3.28
2022-10-09T23:59:06.049Z,2.95
